Latest Weather Observations for Ernabella/Pukatja

IDS60801

Issued at 10:01 pm CDT Monday 23 October 2017 (issued every 30 minutes, with the page automatically refreshed every 10 minutes)

About weather observations | Map of weather stations | Latest weather observations for SA | Other Formats
Station Details ID: 016097 Name: PUKATJA Lat: -26.26 Lon: 132.18 Height: 703.2 m
Data from the previous 72 hours. | See also: Recent months at Ernabella/Pukatja
Date/Time
CDT
Temp
°C
App
Temp
°C
Dew
Point
°C
Rel
Hum
%
Delta-T
°C
Wind Press
QNH
hPa
Press
MSL
hPa
Rain since
9am
mm
Dir  Spd
km/h
Gust
km/h
Spd
kts
Gust
kts
23/10:00pm 23.0 19.9 1.4 24 10.4 NNE 7 9 4 5 1016.2 1012.7 0.0
23/09:30pm 23.2 20.2 2.1 25 10.3 NE 7 11 4 6 1015.9 1012.4 0.0
23/09:00pm 23.5 20.4 1.2 23 10.7 N 7 11 4 6 1016.0 1012.5 0.0
23/08:30pm 24.1 22.5 2.3 24 10.8 CALM 0 0 0 0 1015.8 1012.3 0.0
23/08:00pm 25.7 22.1 0.4 19 12.2 NNE 9 11 5 6 1015.7 1012.2 0.0
23/07:30pm 28.0 23.9 -0.1 16 13.7 NE 11 17 6 9 1015.6 1012.1 0.0
23/07:00pm 28.5 24.7 -0.6 15 14.1 N 9 15 5 8 1015.2 1011.8 0.0
23/06:30pm 29.4 25.1 -1.9 13 14.9 NW 11 17 6 9 1015.1 1011.7 0.0
23/06:00pm 30.4 26.2 -1.1 13 15.3 NNE 11 17 6 9 1015.0 1011.6 0.0
23/05:30pm 30.0 26.6 -0.4 14 14.9 NW 7 13 4 7 1015.0 1011.6 0.0
23/05:00pm 29.6 26.2 -1.7 13 15.0 NE 6 9 3 5 1015.0 1011.6 0.0
23/04:30pm 30.6 26.4 -0.9 13 15.4 N 11 20 6 11 1015.1 1011.7 0.0
23/04:00pm 29.9 25.5 -2.6 12 15.3 NNW 11 20 6 11 1015.2 1011.8 0.0
23/03:30pm 30.3 25.0 -3.4 11 15.7 NNE 15 20 8 11 1015.6 1012.1 0.0
23/03:00pm 29.6 24.3 -3.9 11 15.4 NNW 15 30 8 16 1016.1 1012.6 0.0
23/02:30pm 30.2 25.1 -2.3 12 15.4 NNW 15 24 8 13 1016.5 1013.1 0.0
23/02:00pm 28.7 22.6 -3.5 12 14.8 N 19 32 10 17 1017.0 1013.5 0.0
23/01:30pm 29.3 24.4 -3.0 12 15.1 N 13 22 7 12 1017.4 1013.9 0.0
23/01:00pm 27.8 21.7 -4.2 12 14.5 N 19 26 10 14 1017.6 1014.2 0.0
23/12:30pm 26.7 20.1 -3.0 14 13.6 N 22 33 12 18 1017.9 1014.5 0.0
23/12:00pm 26.5 20.2 -1.3 16 13.1 N 22 33 12 18 1018.2 1014.8 0.0
23/11:30am 25.5 19.2 -1.3 17 12.5 NNE 22 35 12 19 1018.6 1015.1 0.0
23/11:00am 24.4 18.3 -2.2 17 12.1 NNE 20 28 11 15 1019.1 1015.7 0.0
23/10:30am 23.3 17.0 -0.9 20 11.2 NNE 22 32 12 17 1019.3 1015.9 0.0
23/10:00am 22.1 15.8 -1.2 21 10.6 NNE 22 35 12 19 1019.5 1016.1 0.0
23/09:30am 21.7 15.5 -0.3 23 10.2 NNE 22 33 12 18 1019.5 1016.1 0.0
23/09:00am 20.8 14.0 -1.7 22 10.0 NNE 24 32 13 17 1019.3 1015.9 0.0
23/08:30am 19.7 15.1 -0.9 25 9.2 NNE 13 20 7 11 1019.4 1016.0 0.0
23/08:00am 18.1 14.8 0.3 30 8.1 NE 7 9 4 5 1019.0 1015.6 0.0
23/07:30am 15.8 12.4 -0.8 32 7.2 NE 7 11 4 6 1019.0 1015.6 0.0
23/07:00am 13.9 10.6 -1.3 35 6.4 ESE 6 9 3 5 1018.6 1015.1 0.0
23/06:30am 13.1 10.6 -1.2 37 6.0 WNW 2 7 1 4 1018.5 1015.0 0.0
23/06:00am 14.9 10.2 -1.6 32 7.0 E 13 17 7 9 1018.3 1014.9 0.0
23/05:30am 13.7 9.4 -1.9 34 6.5 ENE 11 13 6 7 1018.1 1014.7 0.0
23/05:00am 14.9 10.2 -2.1 31 7.1 E 13 17 7 9 1018.2 1014.8 0.0
23/04:30am 15.1 10.7 -2.3 30 7.3 E 11 13 6 7 1018.2 1014.8 0.0
23/04:00am 15.3 10.9 -2.2 30 7.4 E 11 13 6 7 1018.2 1014.8 0.0
23/03:30am 14.9 10.2 -2.1 31 7.1 E 13 15 7 8 1018.3 1014.9 0.0
23/03:00am 14.3 11.6 -2.1 32 6.8 E 2 7 1 4 1018.9 1015.5 0.0
23/02:30am 15.6 11.6 -2.3 29 7.5 E 9 11 5 6 1018.7 1015.2 0.0
23/02:00am 16.6 12.6 -2.5 27 8.1 E 9 11 5 6 1018.9 1015.5 0.0
23/01:30am 16.7 12.4 -1.9 28 8.0 E 11 13 6 7 1019.1 1015.7 0.0
23/01:00am 17.4 12.7 -1.8 27 8.3 E 13 15 7 8 1019.4 1016.0 0.0
23/12:30am 17.1 13.5 -2.0 27 8.2 E 7 11 4 6 1020.0 1016.5 0.0
23/12:00am 17.9 13.6 -1.9 26 8.6 E 11 13 6 7 1020.1 1016.7 0.0
 
Date/Time
CDT
Temp
°C
App
Temp
°C
Dew
Point
°C
Rel
Hum
%
Delta-T
°C
Wind Press
QNH
hPa
Press
MSL
hPa
Rain since
9am
mm
Dir  Spd
km/h
Gust
km/h
Spd
kts
Gust
kts
22/11:30pm 18.2 13.9 -1.6 26 8.6 E 11 13 6 7 1020.2 1016.8 0.0
22/11:00pm 17.3 13.8 -1.4 28 8.2 ENE 7 9 4 5 1020.3 1016.9 0.0
22/10:30pm 17.4 13.0 -2.3 26 8.4 ENE 11 13 6 7 1020.2 1016.8 0.0
22/10:00pm 17.6 13.6 -2.6 25 8.6 ENE 9 11 5 6 1020.0 1016.5 0.0
22/09:30pm 19.4 14.9 -3.5 21 9.7 E 11 11 6 6 1020.0 1016.5 0.0
22/09:00pm 19.7 15.2 -3.2 21 9.8 ENE 11 13 6 7 1019.6 1016.2 0.0
22/08:30pm 20.4 15.5 -3.3 20 10.2 ENE 13 13 7 7 1019.5 1016.1 0.0
22/08:00pm 22.0 17.8 -4.1 17 11.2 ENE 9 11 5 6 1019.3 1015.9 0.0
22/07:30pm 24.4 19.6 -5.8 13 12.8 NE 11 17 6 9 1019.0 1015.6 0.0
22/07:00pm 26.0 21.0 -7.9 10 14.1 ENE 11 15 6 8 1018.8 1015.3 0.0
22/06:30pm 26.9 22.2 -8.6 9 14.7 ENE 9 15 5 8 1018.5 1015.0 0.0
22/06:00pm 26.9 21.6 -7.2 10 14.5 NE 13 24 7 13 1018.3 1014.9 0.0
22/05:30pm 27.4 21.3 -8.2 9 14.9 E 17 30 9 16 1018.3 1014.9 0.0
22/05:00pm 27.7 21.2 -8.0 9 15.1 E 19 28 10 15 1018.3 1014.9 0.0
22/04:30pm 27.7 22.1 -6.6 10 14.8 ENE 15 26 8 14 1018.6 1015.1 0.0
22/04:00pm 28.2 23.4 -6.3 10 15.1 ESE 11 20 6 11 1018.8 1015.3 0.0
22/03:30pm 27.6 22.0 -6.7 10 14.8 ENE 15 26 8 14 1019.1 1015.7 0.0
22/03:00pm 27.6 21.8 -4.3 12 14.3 ESE 17 26 9 14 1019.6 1016.2 0.0
22/02:30pm 27.0 20.9 -7.2 10 14.5 NE 17 26 9 14 1020.1 1016.7 0.0
22/02:00pm 25.7 20.7 -8.2 10 14.0 E 11 20 6 11 1020.6 1017.2 0.0
22/01:30pm 25.8 20.2 -6.9 11 13.8 E 15 24 8 13 1021.2 1017.8 0.0
22/01:00pm 25.3 19.8 -5.1 13 13.2 NE 15 22 8 12 1021.5 1018.1 0.0
22/12:30pm 24.8 20.0 -2.7 16 12.4 E 13 24 7 13 1021.9 1018.5 0.0
22/12:00pm 23.9 17.9 -3.4 16 12.1 ENE 19 26 10 14 1022.3 1018.9 0.0
22/11:30am 23.1 16.8 -4.1 16 11.8 ENE 20 32 11 17 1022.6 1019.3 0.0
22/11:00am 22.6 16.6 -2.9 18 11.3 ENE 19 30 10 16 1022.8 1019.5 0.0
22/10:30am 22.2 16.3 -2.5 19 11.0 ENE 19 30 10 16 1022.8 1019.5 0.0
22/10:00am 21.3 15.3 -1.9 21 10.4 ENE 20 30 11 16 1023.0 1019.6 0.0
22/09:30am 19.8 14.5 -0.8 25 9.3 NE 17 22 9 12 1023.0 1019.6 0.0
22/09:00am 19.3 14.4 -0.7 26 9.0 ENE 15 20 8 11 1022.8 1019.5 0.0
22/08:30am 17.9 14.1 -0.8 28 8.3 ENE 9 15 5 8 1023.0 1019.6 0.0
22/08:00am 14.9 12.7 -1.2 33 6.9 CALM 0 0 0 0 1022.7 1019.4 0.0
22/07:30am 12.5 10.5 -0.4 41 5.5 CALM 0 0 0 0 1022.5 1019.1 0.0
22/07:00am 11.5 9.1 -0.3 44 5.0 NNE 2 6 1 3 1022.1 1018.7 0.0
22/06:30am 10.6 7.3 0.1 48 4.4 NNW 7 9 4 5 1021.8 1018.4 0.0
22/06:00am 10.3 6.2 0.1 49 4.3 E 11 13 6 7 1021.7 1018.3 0.0
22/05:30am 11.3 7.6 -0.2 45 4.9 NE 9 11 5 6 1021.3 1018.0 0.0
22/05:00am 12.5 10.1 0.0 42 5.4 ENE 2 7 1 4 1021.2 1017.8 0.0
22/04:30am 12.3 9.0 0.1 43 5.2 NNE 7 9 4 5 1021.0 1017.6 0.0
22/04:00am 14.0 10.7 -0.1 38 6.1 NE 7 9 4 5 1021.3 1018.0 0.0
22/03:30am 14.3 10.2 -0.5 36 6.4 E 11 13 6 7 1021.6 1018.2 0.0
22/03:00am 14.7 10.5 -0.6 35 6.6 E 11 13 6 7 1021.8 1018.4 0.0
22/02:30am 15.6 11.1 -0.6 33 7.0 E 13 17 7 9 1022.1 1018.7 0.0
22/02:00am 15.5 11.3 -0.7 33 7.1 ENE 11 15 6 8 1022.5 1019.1 0.0
22/01:30am 18.3 12.6 -1.0 27 8.5 E 19 26 10 14 1022.8 1019.5 0.0
22/01:00am 18.5 13.1 -1.3 26 8.7 ESE 17 28 9 15 1023.1 1019.7 0.0
22/12:30am 18.5 13.5 -1.3 26 8.7 ESE 15 20 8 11 1023.3 1019.9 0.0
22/12:00am 19.6 13.7 -0.9 25 9.2 ESE 20 26 11 14 1023.5 1020.1 0.0
 
Date/Time
CDT
Temp
°C
App
Temp
°C
Dew
Point
°C
Rel
Hum
%
Delta-T
°C
Wind Press
QNH
hPa
Press
MSL
hPa
Rain since
9am
mm
Dir  Spd
km/h
Gust
km/h
Spd
kts
Gust
kts
21/11:30pm 19.8 14.1 -0.8 25 9.3 ESE 19 24 10 13 1023.6 1020.2 0.0
21/11:00pm 19.9 15.1 -0.1 26 9.2 SE 15 22 8 12 1023.8 1020.4 0.0
21/10:30pm 19.5 15.0 -0.5 26 9.0 SSE 13 20 7 11 1023.7 1020.3 0.0
21/10:00pm 20.5 15.9 -0.7 24 9.6 SE 13 17 7 9 1023.6 1020.2 0.0
21/09:30pm 21.2 16.4 -0.1 24 9.8 SE 15 24 8 13 1023.5 1020.1 0.0
21/09:00pm 21.3 16.4 -0.6 23 10.0 SE 15 22 8 12 1023.4 1020.0 0.0
21/08:30pm 21.8 16.8 -1.5 21 10.5 ESE 15 20 8 11 1023.2 1019.8 0.0
21/08:00pm 23.2 17.4 -1.7 19 11.3 SE 19 30 10 16 1022.8 1019.5 0.0
21/07:30pm 24.4 18.8 -3.0 16 12.3 SE 17 26 9 14 1022.7 1019.4 0.0
21/07:00pm 25.3 19.6 -4.1 14 13.0 SSE 17 26 9 14 1022.5 1019.1 0.0
21/06:30pm 26.2 20.5 -3.4 14 13.3 SE 17 26 9 14 1022.3 1018.9 0.0
21/06:00pm 26.5 20.2 -4.1 13 13.7 ESE 20 33 11 18 1022.3 1018.9 0.0
21/05:30pm 27.0 21.4 -2.7 14 13.6 SSE 17 26 9 14 1022.2 1018.8 0.0
21/05:00pm 27.1 21.1 -2.7 14 13.7 SSE 19 30 10 16 1022.4 1019.0 0.0
21/04:30pm 27.2 21.8 -1.7 15 13.5 ESE 17 28 9 15 1022.6 1019.3 0.0
21/04:00pm 26.7 20.5 -3.0 14 13.6 SSE 20 30 11 16 1023.0 1019.6 0.0
21/03:30pm 26.6 20.6 -3.1 14 13.5 SSE 19 33 10 18 1023.3 1019.9 0.0
21/03:00pm 26.6 21.1 -2.1 15 13.3 SSE 17 30 9 16 1023.6 1020.2 0.0
21/02:30pm 27.2 22.0 -2.6 14 13.7 SSE 15 28 8 15 1023.9 1020.6 0.0
21/02:00pm 25.8 20.3 -1.9 16 12.8 ESE 17 26 9 14 1024.6 1021.2 0.0
21/01:30pm 25.2 19.3 -2.4 16 12.6 SE 19 30 10 16 1024.9 1021.5 0.0
21/01:00pm 23.7 18.4 -0.6 20 11.4 SE 17 26 9 14 1025.3 1022.0 0.0
21/12:30pm 23.7 18.2 0.7 22 11.0 E 19 28 10 15 1025.6 1022.3 0.0
21/12:00pm 23.4 18.1 1.7 24 10.5 ESE 19 28 10 15 1025.9 1022.6 0.0
21/11:30am 22.2 16.3 1.8 26 9.8 E 22 32 12 17 1026.2 1022.8 0.0
21/11:00am 21.2 15.0 2.0 28 9.2 ESE 24 32 13 17 1026.6 1023.3 0.0
21/10:30am 20.3 14.2 2.6 31 8.5 ESE 24 35 13 19 1026.6 1023.3 0.0
21/10:00am 19.3 13.2 2.6 33 8.0 E 24 33 13 18 1026.9 1023.6 0.0
21/09:30am 17.9 10.6 2.6 36 7.2 E 30 39 16 21 1026.9 1023.6 0.0
21/09:00am 17.4 11.2 2.2 36 7.1 E 24 33 13 18 1026.8 1023.5 0.0
21/08:30am 16.6 10.5 2.6 39 6.6 E 24 32 13 17 1026.5 1023.2 0.0
21/08:00am 15.5 9.7 2.3 41 6.1 E 22 30 12 16 1026.3 1022.9 0.0
21/07:30am 14.4 8.5 2.0 43 5.6 E 22 30 12 16 1025.9 1022.6 0.0
21/07:00am 14.1 7.9 2.0 44 5.5 ESE 24 37 13 20 1025.7 1022.4 0.0
21/06:30am 14.3 8.4 1.9 43 5.6 ESE 22 32 12 17 1025.6 1022.3 0.0
21/06:00am 14.6 8.3 1.5 41 5.9 ESE 24 35 13 19 1025.4 1022.1 0.0
21/05:30am 14.8 8.8 1.0 39 6.2 ESE 22 33 12 18 1025.3 1022.0 0.0
21/05:00am 15.4 9.7 0.8 37 6.6 SE 20 30 11 16 1025.5 1022.2 0.0
21/04:30am 15.6 9.1 0.6 36 6.7 ESE 24 35 13 19 1025.5 1022.2 0.0
21/04:00am 16.4 9.9 0.5 34 7.2 SE 24 37 13 20 1025.5 1022.2 0.0
21/03:30am 17.1 9.5 0.3 32 7.5 SE 30 41 16 22 1025.6 1022.3 0.0
21/03:00am 17.6 10.6 -0.2 30 7.9 SE 26 35 14 19 1025.8 1022.5 0.0
21/02:30am 17.9 11.3 -0.4 29 8.1 SE 24 33 13 18 1026.3 1022.9 0.0
21/02:00am 18.3 11.2 -1.0 27 8.6 SE 26 35 14 19 1026.6 1023.3 0.0
21/01:30am 18.7 12.8 -0.7 27 8.6 SE 20 32 11 17 1026.9 1023.6 0.0
21/01:00am 19.0 13.3 -0.9 26 8.9 SE 19 28 10 15 1027.0 1023.7 0.0
21/12:30am 19.2 13.2 -1.3 25 9.1 SE 20 28 11 15 1027.1 1023.8 0.0
21/12:00am 20.1 12.9 -1.7 23 9.6 SE 26 35 14 19 1027.0 1023.7 0.0
 
Date/Time
CDT
Temp
°C
App
Temp
°C
Dew
Point
°C
Rel
Hum
%
Delta-T
°C
Wind Press
QNH
hPa
Press
MSL
hPa
Rain since
9am
mm
Dir  Spd
km/h
Gust
km/h
Spd
kts
Gust
kts
20/11:30pm 20.3 13.9 -1.5 23 9.7 ESE 22 30 12 16 1027.0 1023.7 0.0
20/11:00pm 21.0 15.1 -0.9 23 10.0 SE 20 32 11 17 1027.0 1023.7 0.0
20/10:30pm 21.5 14.9 -0.5 23 10.1 ESE 24 35 13 19 1026.8 1023.5 0.0

Other Formats:

Comma delimited format used in spreadsheet applications
http://www.bom.gov.au/fwo/IDS60801/IDS60801.94474.axf

JavaScript Object Notation format (JSON) in row-major order
http://www.bom.gov.au/fwo/IDS60801/IDS60801.94474.json